sensor_id;sensor_type;location;lat;lon;timestamp;pressure;altitude;pressure_sealevel;temperature;humidity
77288;BME280;66345;42.694;23.346;2023-09-18T00:00:59;96010.88;;;16.85;85.00
77288;BME280;66345;42.694;23.346;2023-09-18T00:03:24;96020.53;;;16.86;84.96
77288;BME280;66345;42.694;23.346;2023-09-18T00:05:51;96002.38;;;16.88;85.05
77288;BME280;66345;42.694;23.346;2023-09-18T00:08:17;96002.38;;;16.88;84.88
77288;BME280;66345;42.694;23.346;2023-09-18T00:10:46;95992.03;;;16.92;84.59
77288;BME280;66345;42.694;23.346;2023-09-18T00:13:13;95995.97;;;16.89;84.73
77288;BME280;66345;42.694;23.346;2023-09-18T00:15:38;95999.88;;;16.94;84.50
77288;BME280;66345;42.694;23.346;2023-09-18T00:18:06;95999.25;;;16.91;84.68
77288;BME280;66345;42.694;23.346;2023-09-18T00:20:31;95992.00;;;16.99;84.21
77288;BME280;66345;42.694;23.346;2023-09-18T00:22:56;95992.84;;;16.92;84.24
77288;BME280;66345;42.694;23.346;2023-09-18T00:25:22;95992.25;;;16.90;83.91
77288;BME280;66345;42.694;23.346;2023-09-18T00:27:48;95995.13;;;16.96;83.58
77288;BME280;66345;42.694;23.346;2023-09-18T00:30:14;96001.94;;;16.91;83.38
77288;BME280;66345;42.694;23.346;2023-09-18T00:32:39;95994.69;;;16.99;83.36
77288;BME280;66345;42.694;23.346;2023-09-18T00:35:05;95995.94;;;16.96;83.39
77288;BME280;66345;42.694;23.346;2023-09-18T00:37:31;96006.44;;;16.98;82.99
77288;BME280;66345;42.694;23.346;2023-09-18T00:39:56;95998.19;;;16.99;82.72
77288;BME280;66345;42.694;23.346;2023-09-18T00:42:21;96002.09;;;17.03;82.53
77288;BME280;66345;42.694;23.346;2023-09-18T00:44:48;96005.72;;;17.15;81.63
77288;BME280;66345;42.694;23.346;2023-09-18T00:47:14;96000.41;;;17.09;81.76
77288;BME280;66345;42.694;23.346;2023-09-18T00:49:41;96003.09;;;17.09;82.16
77288;BME280;66345;42.694;23.346;2023-09-18T00:52:09;96011.28;;;17.14;81.76
77288;BME280;66345;42.694;23.346;2023-09-18T00:54:37;96016.03;;;17.12;82.26
77288;BME280;66345;42.694;23.346;2023-09-18T00:57:03;96008.22;;;17.10;82.30
77288;BME280;66345;42.694;23.346;2023-09-18T00:59:29;96003.09;;;17.09;82.13
77288;BME280;66345;42.694;23.346;2023-09-18T01:01:54;96005.31;;;17.12;82.11
77288;BME280;66345;42.694;23.346;2023-09-18T01:04:21;96017.09;;;17.11;81.61
77288;BME280;66345;42.694;23.346;2023-09-18T01:06:47;96009.03;;;17.11;82.27
77288;BME280;66345;42.694;23.346;2023-09-18T01:09:16;96012.91;;;17.15;81.55
77288;BME280;66345;42.694;23.346;2023-09-18T01:11:50;96012.31;;;17.13;81.37
77288;BME280;66345;42.694;23.346;2023-09-18T01:14:29;96016.88;;;17.12;81.34
77288;BME280;66345;42.694;23.346;2023-09-18T01:16:57;96006.81;;;17.08;81.12
77288;BME280;66345;42.694;23.346;2023-09-18T01:19:42;96019.38;;;17.07;80.90
77288;BME280;66345;42.694;23.346;2023-09-18T01:22:13;96006.41;;;17.04;80.96
77288;BME280;66345;42.694;23.346;2023-09-18T01:24:40;96015.44;;;17.10;81.05
77288;BME280;66345;42.694;23.346;2023-09-18T01:27:15;96009.09;;;17.04;81.04
77288;BME280;66345;42.694;23.346;2023-09-18T01:29:45;96011.59;;;16.99;81.18
77288;BME280;66345;42.694;23.346;2023-09-18T01:32:11;96006.22;;;16.99;81.18
77288;BME280;66345;42.694;23.346;2023-09-18T01:34:38;96003.16;;;16.96;81.36
77288;BME280;66345;42.694;23.346;2023-09-18T01:37:07;96015.34;;;16.91;81.69
77288;BME280;66345;42.694;23.346;2023-09-18T01:39:34;96008.13;;;16.92;81.59
77288;BME280;66345;42.694;23.346;2023-09-18T01:42:02;96012.66;;;16.91;81.35
77288;BME280;66345;42.694;23.346;2023-09-18T01:44:28;96017.66;;;16.88;81.53
77288;BME280;66345;42.694;23.346;2023-09-18T01:46:59;96014.56;;;16.84;81.18
77288;BME280;66345;42.694;23.346;2023-09-18T01:49:33;96015.38;;;16.85;81.35
77288;BME280;66345;42.694;23.346;2023-09-18T01:51:59;96021.59;;;16.85;81.14
77288;BME280;66345;42.694;23.346;2023-09-18T01:54:24;96014.56;;;16.84;81.16
77288;BME280;66345;42.694;23.346;2023-09-18T01:56:50;96017.41;;;16.89;81.04
77288;BME280;66345;42.694;23.346;2023-09-18T01:59:17;96017.66;;;16.88;80.63
77288;BME280;66345;42.694;23.346;2023-09-18T02:01:43;96022.78;;;16.89;80.82
77288;BME280;66345;42.694;23.346;2023-09-18T02:04:08;96025.47;;;16.89;80.66
77288;BME280;66345;42.694;23.346;2023-09-18T02:06:34;96025.47;;;16.89;80.72
77288;BME280;66345;42.694;23.346;2023-09-18T02:08:59;96022.56;;;16.91;80.64
77288;BME280;66345;42.694;23.346;2023-09-18T02:11:25;96025.88;;;16.93;80.84
77288;BME280;66345;42.694;23.346;2023-09-18T02:13:51;96026.25;;;16.97;80.69
77288;BME280;66345;42.694;23.346;2023-09-18T02:16:16;96026.03;;;16.98;80.24
77288;BME280;66345;42.694;23.346;2023-09-18T02:18:41;96017.16;;;16.98;80.44
77288;BME280;66345;42.694;23.346;2023-09-18T02:21:08;96016.31;;;17.04;80.20
77288;BME280;66345;42.694;23.346;2023-09-18T02:23:34;96029.75;;;16.97;80.46
77288;BME280;66345;42.694;23.346;2023-09-18T02:25:59;96018.81;;;16.99;80.09
77288;BME280;66345;42.694;23.346;2023-09-18T02:28:25;96029.16;;;16.95;80.24
77288;BME280;66345;42.694;23.346;2023-09-18T02:30:51;96028.75;;;16.91;80.27
77288;BME280;66345;42.694;23.346;2023-09-18T02:33:16;96026.53;;;16.82;80.65
77288;BME280;66345;42.694;23.346;2023-09-18T02:35:42;96029.25;;;16.75;80.98
77288;BME280;66345;42.694;23.346;2023-09-18T02:38:10;96033.38;;;16.78;80.80
77288;BME280;66345;42.694;23.346;2023-09-18T02:40:35;96025.13;;;16.79;80.46
77288;BME280;66345;42.694;23.346;2023-09-18T02:43:01;96025.34;;;16.78;80.64
77288;BME280;66345;42.694;23.346;2023-09-18T02:45:28;96026.78;;;16.67;80.77
77288;BME280;66345;42.694;23.346;2023-09-18T02:47:53;96031.53;;;16.65;81.05
77288;BME280;66345;42.694;23.346;2023-09-18T02:50:19;96031.13;;;16.61;81.28
77288;BME280;66345;42.694;23.346;2023-09-18T02:52:44;96020.22;;;16.63;81.20
77288;BME280;66345;42.694;23.346;2023-09-18T02:55:10;96025.78;;;16.55;81.31
77288;BME280;66345;42.694;23.346;2023-09-18T02:57:35;96032.00;;;16.55;81.62
77288;BME280;66345;42.694;23.346;2023-09-18T03:00:01;96031.38;;;16.53;81.64
77288;BME280;66345;42.694;23.346;2023-09-18T03:02:26;96032.63;;;16.51;81.60
77288;BME280;66345;42.694;23.346;2023-09-18T03:04:51;96032.00;;;16.55;81.31
77288;BME280;66345;42.694;23.346;2023-09-18T03:07:17;96033.66;;;16.50;81.93
77288;BME280;66345;42.694;23.346;2023-09-18T03:09:42;96031.16;;;16.55;81.25
77288;BME280;66345;42.694;23.346;2023-09-18T03:12:08;96030.56;;;16.53;81.51
77288;BME280;66345;42.694;23.346;2023-09-18T03:14:34;96031.38;;;16.53;81.73
77288;BME280;66345;42.694;23.346;2023-09-18T03:16:59;96033.88;;;16.48;81.68
77288;BME280;66345;42.694;23.346;2023-09-18T03:19:24;96029.97;;;16.44;81.90
77288;BME280;66345;42.694;23.346;2023-09-18T03:21:52;96023.16;;;16.48;82.05
77288;BME280;66345;42.694;23.346;2023-09-18T03:24:17;96027.91;;;16.46;81.79
77288;BME280;66345;42.694;23.346;2023-09-18T03:26:43;96026.03;;;16.47;81.69
77288;BME280;66345;42.694;23.346;2023-09-18T03:29:08;96023.19;;;16.42;81.97
77288;BME280;66345;42.694;23.346;2023-09-18T03:31:33;96017.03;;;16.34;82.38
77288;BME280;66345;42.694;23.346;2023-09-18T03:33:59;96021.78;;;16.32;82.60
77288;BME280;66345;42.694;23.346;2023-09-18T03:36:24;96018.69;;;16.35;82.28
77288;BME280;66345;42.694;23.346;2023-09-18T03:38:49;96017.63;;;16.36;82.07
77288;BME280;66345;42.694;23.346;2023-09-18T03:41:15;96013.13;;;16.30;82.52
77288;BME280;66345;42.694;23.346;2023-09-18T03:43:40;96010.06;;;16.27;83.17
77288;BME280;66345;42.694;23.346;2023-09-18T03:46:06;96005.75;;;16.26;82.79
77288;BME280;66345;42.694;23.346;2023-09-18T03:48:33;96012.31;;;16.23;82.71
77288;BME280;66345;42.694;23.346;2023-09-18T03:51:06;96007.59;;;16.25;83.23
77288;BME280;66345;42.694;23.346;2023-09-18T03:53:34;96004.50;;;16.22;83.17
77288;BME280;66345;42.694;23.346;2023-09-18T03:56:00;96009.84;;;16.22;83.02
77288;BME280;66345;42.694;23.346;2023-09-18T03:58:26;96002.25;;;16.25;82.84
77288;BME280;66345;42.694;23.346;2023-09-18T04:00:52;96004.91;;;16.25;82.69
77288;BME280;66345;42.694;23.346;2023-09-18T04:03:17;96003.91;;;16.20;82.88
77288;BME280;66345;42.694;23.346;2023-09-18T04:05:43;96010.09;;;16.14;83.08
77288;BME280;66345;42.694;23.346;2023-09-18T04:08:08;96000.81;;;16.09;83.35
77288;BME280;66345;42.694;23.346;2023-09-18T04:10:34;96007.66;;;16.05;83.67
77288;BME280;66345;42.694;23.346;2023-09-18T04:13:00;96012.56;;;16.08;83.72
77288;BME280;66345;42.694;23.346;2023-09-18T04:15:25;96013.81;;;16.06;83.51
77288;BME280;66345;42.694;23.346;2023-09-18T04:17:52;96011.31;;;16.18;83.27
77288;BME280;66345;42.694;23.346;2023-09-18T04:20:17;96015.44;;;16.14;82.94
77288;BME280;66345;42.694;23.346;2023-09-18T04:22:46;96021.41;;;16.09;83.25
77288;BME280;66345;42.694;23.346;2023-09-18T04:25:15;96018.97;;;16.01;83.31
77288;BME280;66345;42.694;23.346;2023-09-18T04:27:41;96019.59;;;16.03;83.84
77288;BME280;66345;42.694;23.346;2023-09-18T04:30:08;96022.44;;;16.08;83.22
77288;BME280;66345;42.694;23.346;2023-09-18T04:32:36;96028.84;;;16.14;82.97
77288;BME280;66345;42.694;23.346;2023-09-18T04:35:01;96020.41;;;16.10;82.98
77288;BME280;66345;42.694;23.346;2023-09-18T04:37:26;96023.28;;;16.02;83.56
77288;BME280;66345;42.694;23.346;2023-09-18T04:39:52;96021.63;;;16.07;83.35
77288;BME280;66345;42.694;23.346;2023-09-18T04:42:17;96018.75;;;16.09;83.37
77288;BME280;66345;42.694;23.346;2023-09-18T04:44:43;96025.53;;;16.18;83.30
77288;BME280;66345;42.694;23.346;2023-09-18T04:47:09;96022.78;;;16.31;82.51
77288;BME280;66345;42.694;23.346;2023-09-18T04:49:34;96023.41;;;16.40;81.53
77288;BME280;66345;42.694;23.346;2023-09-18T04:52:00;96019.06;;;16.39;81.66
77288;BME280;66345;42.694;23.346;2023-09-18T04:54:25;96022.53;;;16.46;81.31
77288;BME280;66345;42.694;23.346;2023-09-18T04:56:50;96027.28;;;16.44;81.50
77288;BME280;66345;42.694;23.346;2023-09-18T04:59:16;96017.09;;;16.66;80.52
77288;BME280;66345;42.694;23.346;2023-09-18T05:01:41;96014.03;;;16.62;80.55
77288;BME280;66345;42.694;23.346;2023-09-18T05:04:07;96020.16;;;16.76;80.23
77288;BME280;66345;42.694;23.346;2023-09-18T05:06:33;96016.06;;;16.74;80.05
77288;BME280;66345;42.694;23.346;2023-09-18T05:08:58;96022.66;;;16.78;80.13
77288;BME280;66345;42.694;23.346;2023-09-18T05:11:24;96022.69;;;16.71;80.34
77288;BME280;66345;42.694;23.346;2023-09-18T05:13:49;96026.28;;;16.90;80.14
77288;BME280;66345;42.694;23.346;2023-09-18T05:16:16;96022.78;;;16.89;79.71
77288;BME280;66345;42.694;23.346;2023-09-18T05:18:42;96032.00;;;17.00;78.84
77288;BME280;66345;42.694;23.346;2023-09-18T05:21:08;96021.84;;;17.09;78.67
77288;BME280;66345;42.694;23.346;2023-09-18T05:23:37;96026.78;;;17.12;77.90
77288;BME280;66345;42.694;23.346;2023-09-18T05:26:03;96034.38;;;17.15;77.93
77288;BME280;66345;42.694;23.346;2023-09-18T05:28:28;96021.88;;;17.34;77.37
77288;BME280;66345;42.694;23.346;2023-09-18T05:30:53;96032.13;;;17.43;76.71
77288;BME280;66345;42.694;23.346;2023-09-18T05:33:19;96025.75;;;17.38;77.04
77288;BME280;66345;42.694;23.346;2023-09-18T05:35:45;96026.72;;;17.75;76.15
77288;BME280;66345;42.694;23.346;2023-09-18T05:38:11;96032.97;;;17.94;75.27
77288;BME280;66345;42.694;23.346;2023-09-18T05:40:39;96039.47;;;18.05;74.40
77288;BME280;66345;42.694;23.346;2023-09-18T05:43:05;96030.97;;;18.08;74.35
77288;BME280;66345;42.694;23.346;2023-09-18T05:45:31;96032.25;;;18.23;73.57
77288;BME280;66345;42.694;23.346;2023-09-18T05:47:58;96033.09;;;18.24;73.58
77288;BME280;66345;42.694;23.346;2023-09-18T05:50:33;96046.22;;;18.50;72.58
77288;BME280;66345;42.694;23.346;2023-09-18T05:53:00;96046.59;;;18.54;72.53
77288;BME280;66345;42.694;23.346;2023-09-18T05:55:28;96051.06;;;18.78;71.73
77288;BME280;66345;42.694;23.346;2023-09-18T05:57:54;96038.47;;;18.79;70.76
77288;BME280;66345;42.694;23.346;2023-09-18T06:00:20;96036.94;;;19.43;68.52
77288;BME280;66345;42.694;23.346;2023-09-18T06:02:47;96043.34;;;19.84;66.57
77288;BME280;66345;42.694;23.346;2023-09-18T06:05:12;96045.34;;;20.47;63.97
77288;BME280;66345;42.694;23.346;2023-09-18T06:07:37;96030.25;;;21.15;62.46
77288;BME280;66345;42.694;23.346;2023-09-18T06:10:04;96036.16;;;22.24;58.58
77288;BME280;66345;42.694;23.346;2023-09-18T06:12:29;96038.22;;;22.78;55.81
77288;BME280;66345;42.694;23.346;2023-09-18T06:14:55;96029.38;;;22.82;56.00
77288;BME280;66345;42.694;23.346;2023-09-18T06:17:20;96027.81;;;22.86;55.97
77288;BME280;66345;42.694;23.346;2023-09-18T06:19:46;96030.97;;;23.86;53.35
77288;BME280;66345;42.694;23.346;2023-09-18T06:22:12;96031.81;;;25.49;48.80
77288;BME280;66345;42.694;23.346;2023-09-18T06:24:37;96034.56;;;26.46;45.84
77288;BME280;66345;42.694;23.346;2023-09-18T06:27:06;96046.59;;;24.06;50.69
77288;BME280;66345;42.694;23.346;2023-09-18T06:29:33;96036.34;;;23.76;51.90
77288;BME280;66345;42.694;23.346;2023-09-18T06:31:58;96046.56;;;23.69;51.65
77288;BME280;66345;42.694;23.346;2023-09-18T06:34:28;96040.22;;;23.58;52.17
77288;BME280;66345;42.694;23.346;2023-09-18T06:36:53;96041.44;;;23.72;51.85
77288;BME280;66345;42.694;23.346;2023-09-18T06:39:19;96049.16;;;23.32;52.82
77288;BME280;66345;42.694;23.346;2023-09-18T06:41:45;96044.09;;;23.40;52.48
77288;BME280;66345;42.694;23.346;2023-09-18T06:44:11;96037.31;;;23.65;51.95
77288;BME280;66345;42.694;23.346;2023-09-18T06:46:36;96032.91;;;25.53;47.05
77288;BME280;66345;42.694;23.346;2023-09-18T06:49:02;96035.91;;;26.43;44.61
77288;BME280;66345;42.694;23.346;2023-09-18T06:51:28;96028.63;;;25.72;45.96
77288;BME280;66345;42.694;23.346;2023-09-18T06:53:54;96039.31;;;25.06;47.93
77288;BME280;66345;42.694;23.346;2023-09-18T06:56:20;96044.66;;;24.39;49.81
77288;BME280;66345;42.694;23.346;2023-09-18T06:58:45;96042.03;;;26.90;44.05
77288;BME280;66345;42.694;23.346;2023-09-18T07:01:13;96035.03;;;27.38;42.51
77288;BME280;66345;42.694;23.346;2023-09-18T07:03:38;96035.38;;;29.35;38.43
77288;BME280;66345;42.694;23.346;2023-09-18T07:06:05;96033.72;;;28.67;39.07
77288;BME280;66345;42.694;23.346;2023-09-18T07:08:31;96037.53;;;28.42;39.20
77288;BME280;66345;42.694;23.346;2023-09-18T07:10:57;96047.28;;;26.71;43.49
77288;BME280;66345;42.694;23.346;2023-09-18T07:13:23;96038.88;;;25.50;45.94
77288;BME280;66345;42.694;23.346;2023-09-18T07:15:48;96036.28;;;27.56;42.16
77288;BME280;66345;42.694;23.346;2023-09-18T07:18:14;96029.97;;;27.16;42.13
77288;BME280;66345;42.694;23.346;2023-09-18T07:20:46;96026.75;;;28.27;39.86
77288;BME280;66345;42.694;23.346;2023-09-18T07:23:11;96031.81;;;27.75;41.48
77288;BME280;66345;42.694;23.346;2023-09-18T07:25:37;96034.59;;;28.04;39.79
77288;BME280;66345;42.694;23.346;2023-09-18T07:28:08;96043.44;;;27.86;39.83
77288;BME280;66345;42.694;23.346;2023-09-18T07:30:34;96046.69;;;27.49;40.75
77288;BME280;66345;42.694;23.346;2023-09-18T07:33:01;96043.56;;;27.65;41.65
77288;BME280;66345;42.694;23.346;2023-09-18T07:35:26;96051.25;;;27.14;42.23
77288;BME280;66345;42.694;23.346;2023-09-18T07:37:52;96037.91;;;27.96;40.38
77288;BME280;66345;42.694;23.346;2023-09-18T07:40:18;96039.69;;;27.82;40.45
77288;BME280;66345;42.694;23.346;2023-09-18T07:42:43;96036.06;;;30.48;35.65
77288;BME280;66345;42.694;23.346;2023-09-18T07:45:12;96050.78;;;26.87;42.28
77288;BME280;66345;42.694;23.346;2023-09-18T07:47:38;96034.56;;;28.91;38.67
77288;BME280;66345;42.694;23.346;2023-09-18T07:50:04;96038.25;;;31.06;33.58
77288;BME280;66345;42.694;23.346;2023-09-18T07:52:29;96035.88;;;31.41;33.03
77288;BME280;66345;42.694;23.346;2023-09-18T07:54:56;96041.38;;;31.27;33.61
77288;BME280;66345;42.694;23.346;2023-09-18T07:57:23;96029.41;;;32.18;31.72
77288;BME280;66345;42.694;23.346;2023-09-18T07:59:49;96022.97;;;33.24;29.82
77288;BME280;66345;42.694;23.346;2023-09-18T08:02:14;96021.31;;;33.06;30.27
77288;BME280;66345;42.694;23.346;2023-09-18T08:04:40;96028.84;;;31.48;32.15
77288;BME280;66345;42.694;23.346;2023-09-18T08:07:05;96033.13;;;29.18;36.64
77288;BME280;66345;42.694;23.346;2023-09-18T08:09:32;96010.91;;;31.65;32.40
77288;BME280;66345;42.694;23.346;2023-09-18T08:12:01;96018.75;;;31.08;32.88
77288;BME280;66345;42.694;23.346;2023-09-18T08:14:27;96020.78;;;29.39;35.50
77288;BME280;66345;42.694;23.346;2023-09-18T08:16:59;96016.88;;;32.03;31.34
77288;BME280;66345;42.694;23.346;2023-09-18T08:19:25;96019.94;;;30.47;33.70
77288;BME280;66345;42.694;23.346;2023-09-18T08:21:53;96021.97;;;30.08;34.70
77288;BME280;66345;42.694;23.346;2023-09-18T08:24:19;96010.63;;;32.34;30.81
77288;BME280;66345;42.694;23.346;2023-09-18T08:26:44;96010.53;;;33.18;29.37
77288;BME280;66345;42.694;23.346;2023-09-18T08:29:10;96008.53;;;32.62;30.34
77288;BME280;66345;42.694;23.346;2023-09-18T08:31:35;95998.72;;;34.86;27.22
77288;BME280;66345;42.694;23.346;2023-09-18T08:34:00;95997.56;;;34.40;28.04
77288;BME280;66345;42.694;23.346;2023-09-18T08:36:26;95989.75;;;36.10;24.52
77288;BME280;66345;42.694;23.346;2023-09-18T08:38:54;95999.25;;;35.38;25.39
77288;BME280;66345;42.694;23.346;2023-09-18T08:41:20;95997.78;;;32.43;29.19
77288;BME280;66345;42.694;23.346;2023-09-18T08:43:50;95997.38;;;32.58;29.55
77288;BME280;66345;42.694;23.346;2023-09-18T08:46:17;95986.13;;;34.67;26.91
77288;BME280;66345;42.694;23.346;2023-09-18T08:48:42;95985.59;;;35.12;25.84
77288;BME280;66345;42.694;23.346;2023-09-18T08:51:11;95974.94;;;34.17;27.09
77288;BME280;66345;42.694;23.346;2023-09-18T08:53:37;95978.56;;;32.91;29.40
77288;BME280;66345;42.694;23.346;2023-09-18T08:56:04;95980.41;;;33.22;28.55
77288;BME280;66345;42.694;23.346;2023-09-18T08:58:34;95969.19;;;34.39;26.90
77288;BME280;66345;42.694;23.346;2023-09-18T09:01:03;95972.78;;;34.40;27.01
77288;BME280;66345;42.694;23.346;2023-09-18T09:03:31;95967.44;;;36.16;25.26
77288;BME280;66345;42.694;23.346;2023-09-18T09:05:59;95969.94;;;35.54;24.61
77288;BME280;66345;42.694;23.346;2023-09-18T09:08:27;95977.25;;;34.62;26.32
77288;BME280;66345;42.694;23.346;2023-09-18T09:10:53;95968.44;;;34.21;26.80
77288;BME280;66345;42.694;23.346;2023-09-18T09:13:19;95975.56;;;32.08;29.46
77288;BME280;66345;42.694;23.346;2023-09-18T09:15:51;95978.13;;;31.24;30.98
77288;BME280;66345;42.694;23.346;2023-09-18T09:18:19;95973.63;;;33.19;28.66
77288;BME280;66345;42.694;23.346;2023-09-18T09:21:03;95972.84;;;33.62;27.56
77288;BME280;66345;42.694;23.346;2023-09-18T09:23:53;95971.66;;;32.63;29.06
77288;BME280;66345;42.694;23.346;2023-09-18T09:26:20;95953.59;;;33.53;27.95
77288;BME280;66345;42.694;23.346;2023-09-18T09:28:46;95968.00;;;32.14;29.14
77288;BME280;66345;42.694;23.346;2023-09-18T09:31:27;95952.59;;;32.66;28.40
77288;BME280;66345;42.694;23.346;2023-09-18T09:33:53;95963.03;;;31.35;29.81
77288;BME280;66345;42.694;23.346;2023-09-18T09:36:19;95957.03;;;30.83;31.17
77288;BME280;66345;42.694;23.346;2023-09-18T09:38:45;95948.69;;;31.02;31.44
77288;BME280;66345;42.694;23.346;2023-09-18T09:41:13;95962.16;;;31.26;31.12
77288;BME280;66345;42.694;23.346;2023-09-18T09:43:41;95949.31;;;32.24;28.85
77288;BME280;66345;42.694;23.346;2023-09-18T09:46:17;95943.91;;;33.56;27.80
77288;BME280;66345;42.694;23.346;2023-09-18T09:51:26;95937.25;;;32.65;28.63
77288;BME280;66345;42.694;23.346;2023-09-18T09:53:52;95930.78;;;29.94;32.47
77288;BME280;66345;42.694;23.346;2023-09-18T09:56:18;95936.59;;;31.03;30.74
77288;BME280;66345;42.694;23.346;2023-09-18T09:59:05;95918.41;;;34.02;25.92
77288;BME280;66345;42.694;23.346;2023-09-18T10:01:33;95931.22;;;32.63;28.17
77288;BME280;66345;42.694;23.346;2023-09-18T10:04:09;95923.94;;;33.24;27.69
77288;BME280;66345;42.694;23.346;2023-09-18T10:06:37;95916.81;;;33.23;27.22
77288;BME280;66345;42.694;23.346;2023-09-18T10:09:06;95920.00;;;32.11;28.97
77288;BME280;66345;42.694;23.346;2023-09-18T10:11:34;95918.84;;;34.60;25.39
77288;BME280;66345;42.694;23.346;2023-09-18T10:14:08;95922.28;;;34.86;24.68
77288;BME280;66345;42.694;23.346;2023-09-18T10:16:40;95919.09;;;33.64;25.90
77288;BME280;66345;42.694;23.346;2023-09-18T10:19:30;95924.41;;;31.45;29.06
77288;BME280;66345;42.694;23.346;2023-09-18T10:24:46;95901.78;;;33.38;27.07
77288;BME280;66345;42.694;23.346;2023-09-18T10:27:14;95919.31;;;29.60;31.53
77288;BME280;66345;42.694;23.346;2023-09-18T10:29:41;95913.63;;;29.37;32.27
77288;BME280;66345;42.694;23.346;2023-09-18T10:32:07;95901.91;;;28.56;33.76
77288;BME280;66345;42.694;23.346;2023-09-18T10:34:34;95890.41;;;29.02;33.68
77288;BME280;66345;42.694;23.346;2023-09-18T10:37:01;95899.25;;;29.13;33.70
77288;BME280;66345;42.694;23.346;2023-09-18T10:39:38;95889.91;;;27.80;36.03
77288;BME280;66345;42.694;23.346;2023-09-18T10:42:09;95891.09;;;26.96;37.33
77288;BME280;66345;42.694;23.346;2023-09-18T10:44:36;95889.03;;;28.14;35.35
77288;BME280;66345;42.694;23.346;2023-09-18T10:47:06;95878.75;;;27.48;36.45
77288;BME280;66345;42.694;23.346;2023-09-18T10:49:34;95885.09;;;26.99;37.38
77288;BME280;66345;42.694;23.346;2023-09-18T10:52:00;95890.66;;;26.14;39.32
77288;BME280;66345;42.694;23.346;2023-09-18T10:54:28;95887.53;;;26.51;38.92
77288;BME280;66345;42.694;23.346;2023-09-18T10:56:56;95877.84;;;26.24;39.13
77288;BME280;66345;42.694;23.346;2023-09-18T10:59:22;95868.63;;;26.15;40.07
77288;BME280;66345;42.694;23.346;2023-09-18T11:01:48;95863.78;;;26.07;40.73
77288;BME280;66345;42.694;23.346;2023-09-18T11:04:18;95869.78;;;25.84;40.07
77288;BME280;66345;42.694;23.346;2023-09-18T11:07:22;95872.75;;;26.67;38.37
77288;BME280;66345;42.694;23.346;2023-09-18T11:09:48;95857.97;;;26.24;37.97
77288;BME280;66345;42.694;23.346;2023-09-18T11:12:15;95856.66;;;26.16;38.86
77288;BME280;66345;42.694;23.346;2023-09-18T11:17:33;95850.16;;;26.07;38.57
77288;BME280;66345;42.694;23.346;2023-09-18T11:20:17;95849.97;;;25.53;40.08
77288;BME280;66345;42.694;23.346;2023-09-18T11:22:50;95845.91;;;25.45;39.98
77288;BME280;66345;42.694;23.346;2023-09-18T11:27:56;95845.88;;;25.86;40.08
77288;BME280;66345;42.694;23.346;2023-09-18T11:30:22;95840.44;;;25.86;39.84
77288;BME280;66345;42.694;23.346;2023-09-18T11:32:51;95836.84;;;26.00;39.73
77288;BME280;66345;42.694;23.346;2023-09-18T11:35:18;95843.19;;;25.70;39.97
77288;BME280;66345;42.694;23.346;2023-09-18T11:37:44;95839.09;;;25.68;39.96
77288;BME280;66345;42.694;23.346;2023-09-18T11:40:33;95824.03;;;26.06;39.53
77288;BME280;66345;42.694;23.346;2023-09-18T11:43:25;95832.88;;;25.42;40.29
77288;BME280;66345;42.694;23.346;2023-09-18T11:45:58;95819.50;;;25.76;40.20
77288;BME280;66345;42.694;23.346;2023-09-18T11:48:25;95815.09;;;26.00;39.30
77288;BME280;66345;42.694;23.346;2023-09-18T11:50:53;95825.66;;;26.12;39.78
77288;BME280;66345;42.694;23.346;2023-09-18T11:53:20;95824.97;;;25.66;39.96
77288;BME280;66345;42.694;23.346;2023-09-18T11:55:45;95814.88;;;25.77;40.32
77288;BME280;66345;42.694;23.346;2023-09-18T11:58:12;95815.69;;;25.92;39.89
77288;BME280;66345;42.694;23.346;2023-09-18T12:00:38;95822.16;;;26.02;39.71
77288;BME280;66345;42.694;23.346;2023-09-18T12:03:19;95819.09;;;26.23;39.44
77288;BME280;66345;42.694;23.346;2023-09-18T12:05:52;95818.69;;;25.76;39.93
77288;BME280;66345;42.694;23.346;2023-09-18T12:08:19;95821.56;;;26.15;39.88
77288;BME280;66345;42.694;23.346;2023-09-18T12:10:48;95815.16;;;25.85;39.60
77288;BME280;66345;42.694;23.346;2023-09-18T12:13:14;95805.94;;;26.46;39.04
77288;BME280;66345;42.694;23.346;2023-09-18T12:15:40;95805.38;;;26.44;39.65
77288;BME280;66345;42.694;23.346;2023-09-18T12:18:10;95799.38;;;26.47;39.83
77288;BME280;66345;42.694;23.346;2023-09-18T12:20:49;95811.69;;;26.39;40.13
77288;BME280;66345;42.694;23.346;2023-09-18T12:23:15;95800.53;;;26.31;40.94
77288;BME280;66345;42.694;23.346;2023-09-18T12:25:41;95804.00;;;25.77;40.71
77288;BME280;66345;42.694;23.346;2023-09-18T12:28:07;95799.69;;;25.70;41.23
77288;BME280;66345;42.694;23.346;2023-09-18T12:30:33;95807.91;;;25.35;41.18
77288;BME280;66345;42.694;23.346;2023-09-18T12:32:59;95800.31;;;25.32;41.42
77288;BME280;66345;42.694;23.346;2023-09-18T12:35:29;95801.09;;;25.48;41.62
77288;BME280;66345;42.694;23.346;2023-09-18T12:37:59;95799.44;;;25.46;41.54
77288;BME280;66345;42.694;23.346;2023-09-18T12:40:26;95791.81;;;25.59;39.82
77288;BME280;66345;42.694;23.346;2023-09-18T12:42:55;95798.06;;;25.54;40.48
77288;BME280;66345;42.694;23.346;2023-09-18T12:45:21;95799.72;;;25.50;40.51
77288;BME280;66345;42.694;23.346;2023-09-18T12:47:47;95797.81;;;25.51;40.36
77288;BME280;66345;42.694;23.346;2023-09-18T12:50:13;95794.88;;;25.32;40.12
77288;BME280;66345;42.694;23.346;2023-09-18T12:52:39;95786.44;;;25.28;41.21
77288;BME280;66345;42.694;23.346;2023-09-18T12:55:04;95784.78;;;25.48;40.90
77288;BME280;66345;42.694;23.346;2023-09-18T12:57:32;95781.78;;;25.39;40.91
77288;BME280;66345;42.694;23.346;2023-09-18T12:59:58;95775.78;;;25.52;40.97
77288;BME280;66345;42.694;23.346;2023-09-18T13:02:23;95785.34;;;25.39;41.25